Time,TemperatureF,DewpointF,PressureIn,WindDirection,WindDirectionDegrees,WindSpeedMPH,WindSpeedGustMPH,Humidity,HourlyPrecipIn,Conditions,Clouds,dailyrainin,SoftwareType,DateUTC
2013-06-24 00:19:00,61.4,60.0,29.59,SW,234,0.0,1.0,96,0.07,,,0.00,weatherlink.com 1.10,2013-06-24 07:19:00,
2013-06-24 00:34:00,60.8,60.0,29.58,SW,215,0.0,3.0,96,0.05,,,0.00,weatherlink.com 1.10,2013-06-24 07:34:00,
2013-06-24 00:49:00,60.5,59.0,29.59,SW,222,0.0,3.0,96,0.00,,,0.00,weatherlink.com 1.10,2013-06-24 07:49:00,
2013-06-24 01:04:00,60.2,59.0,29.58,SE,146,0.0,2.0,96,0.00,,,0.00,weatherlink.com 1.10,2013-06-24 08:04:00,
2013-06-24 01:19:00,60.0,59.0,29.58,West,259,0.0,2.0,96,0.00,,,0.00,weatherlink.com 1.10,2013-06-24 08:19:00,
2013-06-24 01:34:00,59.9,59.0,29.58,South,183,0.0,1.0,96,0.00,,,0.00,weatherlink.com 1.10,2013-06-24 08:34:00,
2013-06-24 01:49:00,59.8,59.0,29.57,SE,136,0.0,1.0,96,0.00,,,0.00,weatherlink.com 1.10,2013-06-24 08:49:00,
2013-06-24 02:04:00,59.6,59.0,29.58,SSE,163,0.0,0.0,96,0.00,,,0.00,weatherlink.com 1.10,2013-06-24 09:04:00,
2013-06-24 02:19:00,59.5,58.0,29.57,SSE,163,0.0,0.0,96,0.00,,,0.00,weatherlink.com 1.10,2013-06-24 09:19:00,
2013-06-24 02:34:00,59.4,58.0,29.57,South,186,0.0,1.0,96,0.00,,,0.00,weatherlink.com 1.10,2013-06-24 09:34:00,
2013-06-24 02:49:00,59.3,58.0,29.57,SSE,148,0.0,1.0,96,0.00,,,0.00,weatherlink.com 1.10,2013-06-24 09:49:00,
2013-06-24 03:04:00,59.2,58.0,29.57,SE,136,0.0,1.0,96,0.00,,,0.00,weatherlink.com 1.10,2013-06-24 10:04:00,
2013-06-24 03:19:00,59.2,58.0,29.57,SSW,195,0.0,1.0,96,0.00,,,0.00,weatherlink.com 1.10,2013-06-24 10:19:00,
2013-06-24 03:34:00,59.0,58.0,29.56,SSW,195,0.0,1.0,96,0.00,,,0.00,weatherlink.com 1.10,2013-06-24 10:34:00,
2013-06-24 03:49:00,58.7,58.0,29.56,SSW,194,0.0,0.0,96,0.00,,,0.00,weatherlink.com 1.10,2013-06-24 10:49:00,
2013-06-24 04:04:00,58.9,58.0,29.56,SE,136,0.0,1.0,97,0.00,,,0.00,weatherlink.com 1.10,2013-06-24 11:04:00,
2013-06-24 04:19:00,59.2,58.0,29.57,SSE,163,1.0,2.0,96,0.00,,,0.00,weatherlink.com 1.10,2013-06-24 11:19:00,
2013-06-24 04:34:00,59.2,58.0,29.56,SSW,201,0.0,2.0,96,0.00,,,0.00,weatherlink.com 1.10,2013-06-24 11:34:00,
2013-06-24 05:04:00,59.4,58.0,29.56,SSW,197,1.0,4.0,96,0.00,,,0.00,weatherlink.com 1.10,2013-06-24 12:04:00,
2013-06-24 05:19:00,59.4,58.0,29.56,SE,146,2.0,3.0,96,0.00,,,0.00,weatherlink.com 1.10,2013-06-24 12:19:00,
2013-06-24 05:34:00,59.5,58.0,29.57,WSW,256,0.0,2.0,96,0.00,,,0.00,weatherlink.com 1.10,2013-06-24 12:34:00,
2013-06-24 05:49:00,59.3,58.0,29.57,SSW,211,1.0,2.0,96,0.01,,,0.01,weatherlink.com 1.10,2013-06-24 12:49:00,
2013-06-24 06:34:00,57.7,56.0,29.58,South,172,0.0,7.0,95,0.01,,,0.01,weatherlink.com 1.10,2013-06-24 13:34:00,
2013-06-24 06:49:00,57.4,56.0,29.58,SSW,195,0.0,4.0,95,0.00,,,0.01,weatherlink.com 1.10,2013-06-24 13:49:00,
2013-06-24 07:04:00,57.1,56.0,29.59,WSW,246,0.0,5.0,95,0.00,,,0.01,weatherlink.com 1.10,2013-06-24 14:04:00,
2013-06-24 07:19:00,57.0,55.0,29.60,NE,41,0.0,6.0,94,0.00,,,0.01,weatherlink.com 1.10,2013-06-24 14:19:00,
2013-06-24 07:34:00,57.0,55.0,29.60,WSW,258,1.0,7.0,93,0.00,,,0.01,weatherlink.com 1.10,2013-06-24 14:34:00,
2013-06-24 07:49:00,57.2,55.0,29.61,SE,130,2.0,4.0,93,0.00,,,0.01,weatherlink.com 1.10,2013-06-24 14:49:00,
2013-06-24 08:05:00,57.6,56.0,29.61,North,356,2.0,6.0,93,0.00,,,0.01,weatherlink.com 1.10,2013-06-24 15:05:00,
2013-06-24 08:19:00,57.9,56.0,29.62,SW,232,1.0,6.0,92,0.00,,,0.01,weatherlink.com 1.10,2013-06-24 15:19:00,
2013-06-24 08:35:00,58.4,56.0,29.62,ESE,123,2.0,6.0,92,0.00,,,0.01,weatherlink.com 1.10,2013-06-24 15:35:00,
2013-06-24 08:50:00,59.2,56.0,29.62,SSE,167,0.0,6.0,90,0.00,,,0.01,weatherlink.com 1.10,2013-06-24 15:50:00,
2013-06-24 09:20:00,60.1,56.0,29.63,ESE,123,0.0,4.0,87,0.00,,,0.01,weatherlink.com 1.10,2013-06-24 16:20:00,
2013-06-24 09:35:00,60.7,57.0,29.64,WNW,288,0.0,6.0,87,0.00,,,0.01,weatherlink.com 1.10,2013-06-24 16:35:00,
2013-06-24 09:50:00,62.1,58.0,29.63,SW,219,1.0,6.0,85,0.00,,,0.01,weatherlink.com 1.10,2013-06-24 16:50:00,
2013-06-24 10:05:00,63.3,58.0,29.64,SE,139,1.0,4.0,84,0.00,,,0.01,weatherlink.com 1.10,2013-06-24 17:05:00,
2013-06-24 10:20:00,63.6,58.0,29.63,NNE,26,2.0,7.0,81,0.00,,,0.01,weatherlink.com 1.10,2013-06-24 17:20:00,
2013-06-24 11:05:00,63.3,57.0,29.64,SW,233,0.0,7.0,80,0.00,,,0.01,weatherlink.com 1.10,2013-06-24 18:05:00,
2013-06-24 11:20:00,63.5,57.0,29.64,SE,143,2.0,7.0,79,0.00,,,0.01,weatherlink.com 1.10,2013-06-24 18:20:00,
2013-06-24 11:35:00,64.2,58.0,29.64,South,173,0.0,6.0,80,0.00,,,0.01,weatherlink.com 1.10,2013-06-24 18:35:00,
2013-06-24 11:50:00,65.5,58.0,29.64,SSW,204,1.0,6.0,76,0.00,,,0.01,weatherlink.com 1.10,2013-06-24 18:50:00,
2013-06-24 12:05:00,65.0,57.0,29.64,ENE,69,0.0,5.0,75,0.00,,,0.01,weatherlink.com 1.10,2013-06-24 19:05:00,
2013-06-24 12:20:00,64.4,57.0,29.65,SSW,211,2.0,8.0,76,0.00,,,0.01,weatherlink.com 1.10,2013-06-24 19:20:00,
2013-06-24 12:35:00,63.4,58.0,29.65,West,276,2.0,4.0,82,0.00,,,0.01,weatherlink.com 1.10,2013-06-24 19:35:00,
2013-06-24 13:05:00,66.4,58.0,29.64,West,269,4.0,6.0,75,0.00,,,0.01,weatherlink.com 1.10,2013-06-24 20:05:00,
2013-06-24 13:35:00,66.8,58.0,29.64,SE,146,0.0,3.0,73,0.00,,,0.01,weatherlink.com 1.10,2013-06-24 20:35:00,
2013-06-24 14:35:00,65.3,57.0,29.65,West,276,2.0,10.0,75,0.00,,,0.01,weatherlink.com 1.10,2013-06-24 21:35:00,
2013-06-24 15:05:00,66.4,58.0,29.65,SE,130,0.0,4.0,75,0.00,,,0.01,weatherlink.com 1.10,2013-06-24 22:05:00,
2013-06-24 15:20:00,66.6,58.0,29.65,SSE,149,0.0,9.0,74,0.00,,,0.01,weatherlink.com 1.10,2013-06-24 22:20:00,
2013-06-24 15:35:00,66.7,57.0,29.65,NE,45,0.0,5.0,72,0.00,,,0.01,weatherlink.com 1.10,2013-06-24 22:35:00,
2013-06-24 15:50:00,67.2,57.0,29.64,SE,145,6.0,6.0,70,0.00,,,0.01,weatherlink.com 1.10,2013-06-24 22:50:00,
2013-06-24 16:05:00,67.7,57.0,29.65,West,269,1.0,8.0,69,0.00,,,0.01,weatherlink.com 1.10,2013-06-24 23:05:00,
2013-06-24 16:20:00,67.6,57.0,29.64,ESE,117,0.0,7.0,68,0.00,,,0.01,weatherlink.com 1.10,2013-06-24 23:20:00,
2013-06-24 16:35:00,68.6,58.0,29.64,SSE,157,1.0,6.0,69,0.00,,,0.01,weatherlink.com 1.10,2013-06-24 23:35:00,
2013-06-24 16:50:00,67.9,55.0,29.64,South,190,1.0,8.0,63,0.00,,,0.01,weatherlink.com 1.10,2013-06-24 23:50:00,
2013-06-24 17:20:00,69.6,57.0,29.64,South,173,2.0,6.0,64,0.00,,,0.01,weatherlink.com 1.10,2013-06-25 00:20:00,
2013-06-24 17:35:00,68.8,56.0,29.64,ENE,77,0.0,7.0,63,0.00,,,0.01,weatherlink.com 1.10,2013-06-25 00:35:00,
2013-06-24 17:50:00,67.9,57.0,29.64,West,264,0.0,4.0,68,0.00,,,0.01,weatherlink.com 1.10,2013-06-25 00:50:00,
2013-06-24 18:05:00,67.7,58.0,29.65,SSE,165,0.0,5.0,70,0.00,,,0.01,weatherlink.com 1.10,2013-06-25 01:05:00,
2013-06-24 18:20:00,66.8,57.0,29.65,West,269,3.0,5.0,72,0.00,,,0.01,weatherlink.com 1.10,2013-06-25 01:20:00,
2013-06-24 18:50:00,63.3,57.0,29.66,SSE,150,0.0,4.0,81,0.00,,,0.01,weatherlink.com 1.10,2013-06-25 01:50:00,
2013-06-24 19:05:00,62.1,57.0,29.66,SSW,201,2.0,4.0,84,0.00,,,0.01,weatherlink.com 1.10,2013-06-25 02:05:00,
2013-06-24 19:20:00,61.2,57.0,29.67,SE,136,1.0,5.0,86,0.00,,,0.01,weatherlink.com 1.10,2013-06-25 02:20:00,
2013-06-24 19:51:00,60.8,57.0,29.67,SSW,194,0.0,3.0,88,0.00,,,0.01,weatherlink.com 1.10,2013-06-25 02:51:00,
2013-06-24 20:06:00,60.8,58.0,29.67,SSW,195,0.0,3.0,89,0.00,,,0.01,weatherlink.com 1.10,2013-06-25 03:06:00,
2013-06-24 20:21:00,60.5,57.0,29.67,WSW,250,0.0,2.0,89,0.00,,,0.01,weatherlink.com 1.10,2013-06-25 03:21:00,
2013-06-24 20:36:00,60.4,57.0,29.67,SSW,212,0.0,1.0,89,0.00,,,0.01,weatherlink.com 1.10,2013-06-25 03:36:00,
2013-06-24 21:06:00,60.1,56.0,29.67,SSW,210,0.0,5.0,87,0.00,,,0.01,weatherlink.com 1.10,2013-06-25 04:06:00,
2013-06-24 21:21:00,59.7,56.0,29.67,West,262,0.0,2.0,86,0.00,,,0.01,weatherlink.com 1.10,2013-06-25 04:21:00,
2013-06-24 21:36:00,59.6,56.0,29.67,ESE,123,1.0,2.0,88,0.00,,,0.01,weatherlink.com 1.10,2013-06-25 04:36:00,
2013-06-24 21:51:00,59.4,56.0,29.68,SSE,158,0.0,2.0,89,0.00,,,0.01,weatherlink.com 1.10,2013-06-25 04:51:00,
2013-06-24 22:06:00,59.3,56.0,29.68,ESE,106,0.0,3.0,89,0.00,,,0.01,weatherlink.com 1.10,2013-06-25 05:06:00,
2013-06-24 22:22:00,59.2,56.0,29.68,SE,137,0.0,3.0,89,0.00,,,0.01,weatherlink.com 1.10,2013-06-25 05:22:00,
2013-06-24 22:36:00,59.0,56.0,29.67,ESE,123,0.0,2.0,89,0.00,,,0.01,weatherlink.com 1.10,2013-06-25 05:36:00,
2013-06-24 22:51:00,58.9,56.0,29.67,West,269,0.0,2.0,89,0.00,,,0.01,weatherlink.com 1.10,2013-06-25 05:51:00,
2013-06-24 23:06:00,58.8,56.0,29.67,North,9,0.0,1.0,89,0.00,,,0.01,weatherlink.com 1.10,2013-06-25 06:06:00,
2013-06-24 23:21:00,58.7,56.0,29.67,ESE,117,0.0,2.0,89,0.00,,,0.01,weatherlink.com 1.10,2013-06-25 06:21:00,
2013-06-24 23:36:00,58.5,55.0,29.67,SSE,154,0.0,3.0,89,0.00,,,0.01,weatherlink.com 1.10,2013-06-25 06:36:00,
2013-06-24 23:51:00,58.2,55.0,29.67,SSE,152,0.0,0.0,89,0.00,,,0.01,weatherlink.com 1.10,2013-06-25 06:51:00,